Buoy 46612

sailwx.info

Track history (hours):
 
Tides and Currents Weather Stations Pressure Air Temp Water Temp Dewpoint Dewpoint Depression Visibility Wind Speed Wind Dir Waves Ship Positions

Drifting buoy 46612

Last reported at 2016-May-28 18:00 UTC. Time now 2016-May-28 22:03 UTC.
Position N 33°56' W 129°30'.

Water temperature 16.3 ° C

Date/timePositionNaut miles runAvg speedWind from/ knotsBaromVisibWave heightAir tempDewpointWater temp
2016-May-28 18:00N 33°56' W 129°30'1 0.7 16.3
2016-May-28 17:00N 33°56' W 129°29'1 0.6 16.3
2016-May-28 16:00N 33°57' W 129°29'1 0.7 16.3
2016-May-28 14:00N 33°58' W 129°28'0 0.0 16.3
2016-May-28 13:00N 33°58' W 129°28'4 1.9 16.3
2016-May-28 11:00N 34°01' W 129°26'1 0.1 16.3
2016-May-28 06:00N 34°02' W 129°25'1 0.4 16.3
2016-May-28 04:00N 34°02' W 129°25'0 0.0 16.3
2016-May-28 03:00N 34°02' W 129°25'1 0.9 16.4
2016-May-28 02:00N 34°03' W 129°25'0 0.1 16.4
2016-May-28 01:00N 34°03' W 129°25'1 1.0 16.4
2016-May-28 00:00N 34°04' W 129°24'1 0.7 16.4
2016-May-27 23:00N 34°04' W 129°23'0 0.0 16.4
2016-May-27 22:00N 34°04' W 129°23'2 1.8 16.4
2016-May-27 21:00N 34°06' W 129°22'1 0.3 16.3
2016-May-27 18:00N 34°07' W 129°22'0 0.0 16.3
2016-May-27 17:00N 34°07' W 129°22'1 1.0 16.3
2016-May-27 16:00N 34°08' W 129°21'0 0.0 16.3
2016-May-27 15:00N 34°08' W 129°21'1 0.7 16.3
2016-May-27 13:00N 34°09' W 129°20'1 0.5 16.3
2016-May-27 11:00N 34°10' W 129°20'3 0.5 16.4
2016-May-27 05:00N 34°12' W 129°18'1 0.3 16.4
2016-May-27 02:00N 34°13' W 129°18'0 0.2 16.4
2016-May-27 01:00N 34°14' W 129°18'1 0.8 16.4
2016-May-27 00:00N 34°14' W 129°17'0 0.0 16.4
2016-May-26 23:00N 34°14' W 129°17'1 1.0 16.4
2016-May-26 22:00N 34°15' W 129°16'0 0.1 16.4
2016-May-26 21:00N 34°15' W 129°16'3 1.1 16.4
2016-May-26 18:00N 34°18' W 129°14'0 0.0 16.4
2016-May-26 16:00N 34°18' W 129°14'0 0.4 16.4
2016-May-26 15:00N 34°18' W 129°15'1 0.4 16.4
2016-May-26 13:00N 34°19' W 129°14'0 0.5 16.4
2016-May-26 12:00N 34°19' W 129°14'0 0.4 16.4
2016-May-26 11:00N 34°20' W 129°14'3 0.6 16.4
2016-May-26 06:00N 34°22' W 129°12'1 0.6 16.5
2016-May-26 05:00N 34°22' W 129°12'1 0.2 16.5
2016-May-26 02:00N 34°23' W 129°11'0 0.2 16.6
2016-May-26 01:00N 34°23' W 129°11'1 0.7 16.6
2016-May-26 00:00N 34°23' W 129°10'0 0.0 16.6
2016-May-25 23:00N 34°23' W 129°10'1 0.7 16.6
2016-May-25 22:00N 34°24' W 129°10'2 1.8 16.6
2016-May-25 21:00N 34°25' W 129°08'2 0.6 16.5
2016-May-25 17:00N 34°27' W 129°08'0 0.1 16.4
2016-May-25 16:00N 34°27' W 129°07'1 0.6 16.4
2016-May-25 15:00N 34°27' W 129°08'0 0.0 16.4
2016-May-25 14:00N 34°27' W 129°08'1 0.6 16.3
2016-May-25 13:00N 34°28' W 129°08'0 0.4 16.4
2016-May-25 12:00N 34°28' W 129°08'1 0.6 16.3
2016-May-25 11:00N 34°28' W 129°07'2 0.8 16.3
2016-May-25 09:00N 34°29' W 129°06'0 0.0 16.4
2016-May-25 07:00N 34°29' W 129°06'1 0.2 16.4
2016-May-25 03:00N 34°29' W 129°05'1 0.6 16.4
2016-May-25 02:00N 34°30' W 129°05'0 0.1 16.4
2016-May-25 01:00N 34°30' W 129°05'1 0.7 16.4
2016-May-24 23:00N 34°31' W 129°03'3 0.8 16.5
2016-May-24 19:00N 34°34' W 129°02'0 0.2 16.3
2016-May-24 17:00N 34°34' W 129°03'0 0.0 16.3
2016-May-24 16:00N 34°34' W 129°03'1 0.6 16.3
2016-May-24 15:00N 34°35' W 129°03'0 0.0 16.3
2016-May-24 13:00N 34°35' W 129°03'3 0.4 16.3
2016-May-24 04:00N 34°36' W 128°59'1 0.5 16.4
2016-May-24 02:00N 34°37' W 128°59'1 0.5 16.4
2016-May-24 01:00N 34°38' W 128°58'1 1.4 16.5
2016-May-24 00:00N 34°39' W 128°59'0 0.0 16.5
2016-May-23 23:00N 34°39' W 128°59'2 1.5 16.5
2016-May-23 22:00N 34°39' W 128°57'1 0.2 16.5
2016-May-23 15:00N 34°40' W 128°57'0 0.3 16.3
2016-May-23 14:00N 34°40' W 128°57'1 1.0 16.3
2016-May-23 13:00N 34°41' W 128°57'0 0.0 16.3
2016-May-23 12:00N 34°41' W 128°57'1 0.2 16.3
2016-May-23 07:00N 34°42' W 128°55'0 0.2 16.4
2016-May-23 06:00N 34°42' W 128°55'1 0.8 16.4
2016-May-23 05:00N 34°42' W 128°54'1 0.6 16.4
2016-May-23 04:00N 34°43' W 128°54'1 0.6 16.4
2016-May-23 03:00N 34°43' W 128°54'0 0.5 16.4
2016-May-23 02:00N 34°43' W 128°54'1 0.5 16.5
2016-May-23 01:00N 34°44' W 128°53'0 0.4 16.5
2016-May-23 00:00N 34°44' W 128°53'1 1.2 16.5
2016-May-22 23:00N 34°45' W 128°52'0 0.0 16.5
2016-May-22 22:00N 34°45' W 128°52'1 0.5 16.5
2016-May-22 20:00N 34°45' W 128°53'1 0.2 16.5
2016-May-22 15:00N 34°45' W 128°52'2 0.4 16.2
2016-May-22 11:00N 34°46' W 128°50'1 0.2 16.2
2016-May-22 05:00N 34°47' W 128°50'1 0.6 16.2
2016-May-22 03:00N 34°47' W 128°48'0 0.0 16.3
2016-May-22 01:00N 34°47' W 128°48'2 1.7 16.3
2016-May-22 00:00N 34°48' W 128°47'0 0.0 16.3
2016-May-21 21:00N 34°48' W 128°47'1 0.2 16.3
2016-May-21 17:00N 34°49' W 128°47'1 0.4 16.2
2016-May-21 15:00N 34°49' W 128°46'1 1.1 16.2
2016-May-21 14:00N 34°49' W 128°45'1 0.6 16.2
2016-May-21 13:00N 34°49' W 128°44'2 0.2 16.2
2016-May-21 05:00N 34°50' W 128°44'3 0.5 16.2
2016-May-21 00:00N 34°51' W 128°41'0 0.1 16.3
2016-May-20 22:00N 34°51' W 128°41'1 0.7 16.2
2016-May-20 21:00N 34°51' W 128°40'0 0.0 16.2
2016-May-20 20:00N 34°51' W 128°40'0 0.1 16.2
2016-May-20 18:00N 34°51' W 128°40'0 0.5 16.2
2016-May-20 17:00N 34°51' W 128°40'0 0.4 16.2
2016-May-20 16:00N 34°51' W 128°39'0 0.2 16.2
2016-May-20 14:00N 34°51' W 128°39'0 0.5 16.2
2016-May-20 13:00N 34°52' W 128°38'0 0.0 16.2
2016-May-20 11:00N 34°52' W 128°38'2 1.2 16.2
2016-May-20 09:00N 34°53' W 128°36'0 0.0 16.2
2016-May-20 07:00N 34°53' W 128°36'0 0.0 16.2
2016-May-20 05:00N 34°53' W 128°36'1 1.0 16.3
2016-May-20 04:00N 34°52' W 128°35'0 0.3 16.3
2016-May-20 03:00N 34°52' W 128°34'2 1.7 16.3
2016-May-20 02:00N 34°52' W 128°32'0 0.0 16.3
2016-May-20 01:00N 34°52' W 128°32'0 0.1 16.3
2016-May-19 23:00N 34°52' W 128°32'0 0.3 16.3
2016-May-19 22:00N 34°52' W 128°32'2 2.0 16.3
2016-May-19 21:00N 34°52' W 128°30'0 0.0 16.3
2016-May-19 18:00N 34°52' W 128°30'0 0.1 16.3
2016-May-19 17:00N 34°52' W 128°30'0 0.4 16.3
2016-May-19 16:00N 34°52' W 128°30'1 0.5 16.3
2016-May-19 13:00N 34°51' W 128°28'2 0.3 16.3
2016-May-19 06:00N 34°51' W 128°25'1 0.4 16.3
2016-May-19 04:00N 34°51' W 128°24'1 0.4 16.4
2016-May-19 01:00N 34°51' W 128°23'1 1.0 16.4
2016-May-19 00:00N 34°50' W 128°22'0 0.1 16.4
2016-May-18 23:00N 34°50' W 128°22'0 0.4 16.4
2016-May-18 22:00N 34°51' W 128°21'2 2.0 16.4
2016-May-18 21:00N 34°50' W 128°19'   16.4
Track history (hours):
 
Tides and Currents Weather Stations Pressure Air Temp Water Temp Dewpoint Dewpoint Depression Visibility Wind Speed Wind Dir Waves Ship Positions

Drifting buoy 46612

Last reported at 2016-May-28 18:00 UTC. Time now 2016-May-28 22:03 UTC.
Position N 33°56' W 129°30'.

Water temperature 16.3 ° C

Date/timePositionNaut miles runAvg speedWind from/ knotsBaromVisibWave heightAir tempDewpointWater temp
2016-May-28 18:00N 33°56' W 129°30'1 0.7 16.3
2016-May-28 17:00N 33°56' W 129°29'1 0.6 16.3
2016-May-28 16:00N 33°57' W 129°29'1 0.7 16.3
2016-May-28 14:00N 33°58' W 129°28'0 0.0 16.3
2016-May-28 13:00N 33°58' W 129°28'4 1.9 16.3
2016-May-28 11:00N 34°01' W 129°26'1 0.1 16.3
2016-May-28 06:00N 34°02' W 129°25'1 0.4 16.3
2016-May-28 04:00N 34°02' W 129°25'0 0.0 16.3
2016-May-28 03:00N 34°02' W 129°25'1 0.9 16.4
2016-May-28 02:00N 34°03' W 129°25'0 0.1 16.4
2016-May-28 01:00N 34°03' W 129°25'1 1.0 16.4
2016-May-28 00:00N 34°04' W 129°24'1 0.7 16.4
2016-May-27 23:00N 34°04' W 129°23'0 0.0 16.4
2016-May-27 22:00N 34°04' W 129°23'2 1.8 16.4
2016-May-27 21:00N 34°06' W 129°22'1 0.3 16.3
2016-May-27 18:00N 34°07' W 129°22'0 0.0 16.3
2016-May-27 17:00N 34°07' W 129°22'1 1.0 16.3
2016-May-27 16:00N 34°08' W 129°21'0 0.0 16.3
2016-May-27 15:00N 34°08' W 129°21'1 0.7 16.3
2016-May-27 13:00N 34°09' W 129°20'1 0.5 16.3
2016-May-27 11:00N 34°10' W 129°20'3 0.5 16.4
2016-May-27 05:00N 34°12' W 129°18'1 0.3 16.4
2016-May-27 02:00N 34°13' W 129°18'0 0.2 16.4
2016-May-27 01:00N 34°14' W 129°18'1 0.8 16.4
2016-May-27 00:00N 34°14' W 129°17'0 0.0 16.4
2016-May-26 23:00N 34°14' W 129°17'1 1.0 16.4
2016-May-26 22:00N 34°15' W 129°16'0 0.1 16.4
2016-May-26 21:00N 34°15' W 129°16'3 1.1 16.4
2016-May-26 18:00N 34°18' W 129°14'0 0.0 16.4
2016-May-26 16:00N 34°18' W 129°14'0 0.4 16.4
2016-May-26 15:00N 34°18' W 129°15'1 0.4 16.4
2016-May-26 13:00N 34°19' W 129°14'0 0.5 16.4
2016-May-26 12:00N 34°19' W 129°14'0 0.4 16.4
2016-May-26 11:00N 34°20' W 129°14'3 0.6 16.4
2016-May-26 06:00N 34°22' W 129°12'1 0.6 16.5
2016-May-26 05:00N 34°22' W 129°12'1 0.2 16.5
2016-May-26 02:00N 34°23' W 129°11'0 0.2 16.6
2016-May-26 01:00N 34°23' W 129°11'1 0.7 16.6
2016-May-26 00:00N 34°23' W 129°10'0 0.0 16.6
2016-May-25 23:00N 34°23' W 129°10'1 0.7 16.6
2016-May-25 22:00N 34°24' W 129°10'2 1.8 16.6
2016-May-25 21:00N 34°25' W 129°08'2 0.6 16.5
2016-May-25 17:00N 34°27' W 129°08'0 0.1 16.4
2016-May-25 16:00N 34°27' W 129°07'1 0.6 16.4
2016-May-25 15:00N 34°27' W 129°08'0 0.0 16.4
2016-May-25 14:00N 34°27' W 129°08'1 0.6 16.3
2016-May-25 13:00N 34°28' W 129°08'0 0.4 16.4
2016-May-25 12:00N 34°28' W 129°08'1 0.6 16.3
2016-May-25 11:00N 34°28' W 129°07'2 0.8 16.3
2016-May-25 09:00N 34°29' W 129°06'0 0.0 16.4
2016-May-25 07:00N 34°29' W 129°06'1 0.2 16.4
2016-May-25 03:00N 34°29' W 129°05'1 0.6 16.4
2016-May-25 02:00N 34°30' W 129°05'0 0.1 16.4
2016-May-25 01:00N 34°30' W 129°05'1 0.7 16.4
2016-May-24 23:00N 34°31' W 129°03'3 0.8 16.5
2016-May-24 19:00N 34°34' W 129°02'0 0.2 16.3
2016-May-24 17:00N 34°34' W 129°03'0 0.0 16.3
2016-May-24 16:00N 34°34' W 129°03'1 0.6 16.3
2016-May-24 15:00N 34°35' W 129°03'0 0.0 16.3
2016-May-24 13:00N 34°35' W 129°03'3 0.4 16.3
2016-May-24 04:00N 34°36' W 128°59'1 0.5 16.4
2016-May-24 02:00N 34°37' W 128°59'1 0.5 16.4
2016-May-24 01:00N 34°38' W 128°58'1 1.4 16.5
2016-May-24 00:00N 34°39' W 128°59'0 0.0 16.5
2016-May-23 23:00N 34°39' W 128°59'2 1.5 16.5
2016-May-23 22:00N 34°39' W 128°57'1 0.2 16.5
2016-May-23 15:00N 34°40' W 128°57'0 0.3 16.3
2016-May-23 14:00N 34°40' W 128°57'1 1.0 16.3
2016-May-23 13:00N 34°41' W 128°57'0 0.0 16.3
2016-May-23 12:00N 34°41' W 128°57'1 0.2 16.3
2016-May-23 07:00N 34°42' W 128°55'0 0.2 16.4
2016-May-23 06:00N 34°42' W 128°55'1 0.8 16.4
2016-May-23 05:00N 34°42' W 128°54'1 0.6 16.4
2016-May-23 04:00N 34°43' W 128°54'1 0.6 16.4
2016-May-23 03:00N 34°43' W 128°54'0 0.5 16.4
2016-May-23 02:00N 34°43' W 128°54'1 0.5 16.5
2016-May-23 01:00N 34°44' W 128°53'0 0.4 16.5
2016-May-23 00:00N 34°44' W 128°53'1 1.2 16.5
2016-May-22 23:00N 34°45' W 128°52'0 0.0 16.5
2016-May-22 22:00N 34°45' W 128°52'1 0.5 16.5
2016-May-22 20:00N 34°45' W 128°53'1 0.2 16.5
2016-May-22 15:00N 34°45' W 128°52'2 0.4 16.2
2016-May-22 11:00N 34°46' W 128°50'1 0.2 16.2
2016-May-22 05:00N 34°47' W 128°50'1 0.6 16.2
2016-May-22 03:00N 34°47' W 128°48'0 0.0 16.3
2016-May-22 01:00N 34°47' W 128°48'2 1.7 16.3
2016-May-22 00:00N 34°48' W 128°47'0 0.0 16.3
2016-May-21 21:00N 34°48' W 128°47'1 0.2 16.3
2016-May-21 17:00N 34°49' W 128°47'1 0.4 16.2
2016-May-21 15:00N 34°49' W 128°46'1 1.1 16.2
2016-May-21 14:00N 34°49' W 128°45'1 0.6 16.2
2016-May-21 13:00N 34°49' W 128°44'2 0.2 16.2
2016-May-21 05:00N 34°50' W 128°44'3 0.5 16.2
2016-May-21 00:00N 34°51' W 128°41'0 0.1 16.3
2016-May-20 22:00N 34°51' W 128°41'1 0.7 16.2
2016-May-20 21:00N 34°51' W 128°40'0 0.0 16.2
2016-May-20 20:00N 34°51' W 128°40'0 0.1 16.2
2016-May-20 18:00N 34°51' W 128°40'0 0.5 16.2
2016-May-20 17:00N 34°51' W 128°40'0 0.4 16.2
2016-May-20 16:00N 34°51' W 128°39'0 0.2 16.2
2016-May-20 14:00N 34°51' W 128°39'0 0.5 16.2
2016-May-20 13:00N 34°52' W 128°38'0 0.0 16.2
2016-May-20 11:00N 34°52' W 128°38'2 1.2 16.2
2016-May-20 09:00N 34°53' W 128°36'0 0.0 16.2
2016-May-20 07:00N 34°53' W 128°36'0 0.0 16.2
2016-May-20 05:00N 34°53' W 128°36'1 1.0 16.3
2016-May-20 04:00N 34°52' W 128°35'0 0.3 16.3
2016-May-20 03:00N 34°52' W 128°34'2 1.7 16.3
2016-May-20 02:00N 34°52' W 128°32'0 0.0 16.3
2016-May-20 01:00N 34°52' W 128°32'0 0.1 16.3
2016-May-19 23:00N 34°52' W 128°32'0 0.3 16.3
2016-May-19 22:00N 34°52' W 128°32'2 2.0 16.3
2016-May-19 21:00N 34°52' W 128°30'0 0.0 16.3
2016-May-19 18:00N 34°52' W 128°30'0 0.1 16.3
2016-May-19 17:00N 34°52' W 128°30'0 0.4 16.3
2016-May-19 16:00N 34°52' W 128°30'1 0.5 16.3
2016-May-19 13:00N 34°51' W 128°28'2 0.3 16.3
2016-May-19 06:00N 34°51' W 128°25'1 0.4 16.3
2016-May-19 04:00N 34°51' W 128°24'1 0.4 16.4
2016-May-19 01:00N 34°51' W 128°23'1 1.0 16.4
2016-May-19 00:00N 34°50' W 128°22'0 0.1 16.4
2016-May-18 23:00N 34°50' W 128°22'0 0.4 16.4
2016-May-18 22:00N 34°51' W 128°21'2 2.0 16.4
2016-May-18 21:00N 34°50' W 128°19'   16.4

Dump ship's entire track history